sensor_id;sensor_type;location;lat;lon;timestamp;pressure;altitude;pressure_sealevel;temperature;humidity
61472;BME280;47337;54.068;12.114;2023-02-28T00:02:20;102836.09;;;-0.67;100.00
61472;BME280;47337;54.068;12.114;2023-02-28T00:04:46;102833.25;;;-0.70;100.00
61472;BME280;47337;54.068;12.114;2023-02-28T00:07:18;102838.53;;;-0.68;100.00
61472;BME280;47337;54.068;12.114;2023-02-28T00:09:46;102833.38;;;-0.68;100.00
61472;BME280;47337;54.068;12.114;2023-02-28T00:12:12;102842.66;;;-0.70;100.00
61472;BME280;47337;54.068;12.114;2023-02-28T00:14:37;102842.38;;;-0.74;100.00
61472;BME280;47337;54.068;12.114;2023-02-28T00:17:02;102838.63;;;-0.77;100.00
61472;BME280;47337;54.068;12.114;2023-02-28T00:19:28;102840.44;;;-0.76;100.00
61472;BME280;47337;54.068;12.114;2023-02-28T00:21:53;102833.06;;;-0.82;100.00
61472;BME280;47337;54.068;12.114;2023-02-28T00:24:19;102837.41;;;-0.91;100.00
61472;BME280;47337;54.068;12.114;2023-02-28T00:26:44;102834.16;;;-0.98;100.00
61472;BME280;47337;54.068;12.114;2023-02-28T00:29:09;102843.13;;;-1.03;100.00
61472;BME280;47337;54.068;12.114;2023-02-28T00:31:35;102836.28;;;-1.03;100.00
61472;BME280;47337;54.068;12.114;2023-02-28T00:34:02;102836.03;;;-1.06;100.00
61472;BME280;47337;54.068;12.114;2023-02-28T00:36:30;102837.28;;;-1.11;100.00
61472;BME280;47337;54.068;12.114;2023-02-28T00:38:56;102840.00;;;-1.09;100.00
61472;BME280;47337;54.068;12.114;2023-02-28T00:41:23;102835.56;;;-1.21;100.00
61472;BME280;47337;54.068;12.114;2023-02-28T00:43:52;102838.13;;;-1.21;100.00
61472;BME280;47337;54.068;12.114;2023-02-28T00:46:17;102841.31;;;-1.23;100.00
61472;BME280;47337;54.068;12.114;2023-02-28T00:48:42;102833.81;;;-1.30;100.00
61472;BME280;47337;54.068;12.114;2023-02-28T00:51:08;102851.50;;;-1.25;100.00
61472;BME280;47337;54.068;12.114;2023-02-28T00:53:33;102851.00;;;-1.39;100.00
61472;BME280;47337;54.068;12.114;2023-02-28T00:55:59;102853.44;;;-1.41;100.00
61472;BME280;47337;54.068;12.114;2023-02-28T00:58:25;102850.66;;;-1.53;100.00
61472;BME280;47337;54.068;12.114;2023-02-28T01:00:51;102854.13;;;-1.52;100.00
61472;BME280;47337;54.068;12.114;2023-02-28T01:03:21;102863.38;;;-1.54;100.00
61472;BME280;47337;54.068;12.114;2023-02-28T01:05:51;102864.72;;;-1.49;100.00
61472;BME280;47337;54.068;12.114;2023-02-28T01:08:18;102855.03;;;-1.52;100.00
61472;BME280;47337;54.068;12.114;2023-02-28T01:10:43;102865.81;;;-1.56;100.00
61472;BME280;47337;54.068;12.114;2023-02-28T01:13:10;102858.28;;;-1.63;100.00
61472;BME280;47337;54.068;12.114;2023-02-28T01:15:37;102864.19;;;-1.64;100.00
61472;BME280;47337;54.068;12.114;2023-02-28T01:18:03;102867.38;;;-1.66;100.00
61472;BME280;47337;54.068;12.114;2023-02-28T01:20:28;102871.16;;;-1.63;100.00
61472;BME280;47337;54.068;12.114;2023-02-28T01:22:54;102869.56;;;-1.71;100.00
61472;BME280;47337;54.068;12.114;2023-02-28T01:25:19;102866.53;;;-1.75;100.00
61472;BME280;47337;54.068;12.114;2023-02-28T01:27:45;102864.16;;;-1.82;100.00
61472;BME280;47337;54.068;12.114;2023-02-28T01:30:10;102873.69;;;-1.81;100.00
61472;BME280;47337;54.068;12.114;2023-02-28T01:32:36;102875.06;;;-1.85;100.00
61472;BME280;47337;54.068;12.114;2023-02-28T01:35:02;102874.50;;;-1.91;100.00
61472;BME280;47337;54.068;12.114;2023-02-28T01:37:30;102872.03;;;-1.90;100.00
61472;BME280;47337;54.068;12.114;2023-02-28T01:39:55;102870.13;;;-1.92;100.00
61472;BME280;47337;54.068;12.114;2023-02-28T01:42:20;102869.81;;;-1.95;100.00
61472;BME280;47337;54.068;12.114;2023-02-28T01:47:38;102875.28;;;-2.01;100.00
61472;BME280;47337;54.068;12.114;2023-02-28T01:50:09;102875.16;;;-2.02;100.00
61472;BME280;47337;54.068;12.114;2023-02-28T01:52:38;102870.63;;;-2.05;100.00
61472;BME280;47337;54.068;12.114;2023-02-28T01:55:07;102870.94;;;-2.10;100.00
61472;BME280;47337;54.068;12.114;2023-02-28T01:57:35;102868.38;;;-2.10;100.00
61472;BME280;47337;54.068;12.114;2023-02-28T02:00:13;102871.56;;;-2.13;100.00
61472;BME280;47337;54.068;12.114;2023-02-28T02:02:43;102870.06;;;-2.19;100.00
61472;BME280;47337;54.068;12.114;2023-02-28T02:05:14;102868.00;;;-2.24;100.00
61472;BME280;47337;54.068;12.114;2023-02-28T02:07:41;102875.84;;;-2.31;100.00
61472;BME280;47337;54.068;12.114;2023-02-28T02:10:22;102877.38;;;-2.33;100.00
61472;BME280;47337;54.068;12.114;2023-02-28T02:13:26;102874.03;;;-2.32;100.00
61472;BME280;47337;54.068;12.114;2023-02-28T02:16:07;102874.03;;;-2.32;100.00
61472;BME280;47337;54.068;12.114;2023-02-28T02:18:53;102877.09;;;-2.36;100.00
61472;BME280;47337;54.068;12.114;2023-02-28T02:35:40;102875.91;;;-2.48;100.00
61472;BME280;47337;54.068;12.114;2023-02-28T02:43:40;102901.16;;;-2.52;100.00
61472;BME280;47337;54.068;12.114;2023-02-28T02:46:20;102903.13;;;-2.50;100.00
61472;BME280;47337;54.068;12.114;2023-02-28T02:48:46;102895.56;;;-2.48;100.00
61472;BME280;47337;54.068;12.114;2023-02-28T02:51:18;102901.91;;;-2.53;100.00
61472;BME280;47337;54.068;12.114;2023-02-28T02:53:52;102901.00;;;-2.54;100.00
61472;BME280;47337;54.068;12.114;2023-02-28T02:56:24;102906.47;;;-2.51;100.00
61472;BME280;47337;54.068;12.114;2023-02-28T02:58:57;102909.34;;;-2.48;100.00
61472;BME280;47337;54.068;12.114;2023-02-28T03:01:25;102899.22;;;-2.55;100.00
61472;BME280;47337;54.068;12.114;2023-02-28T03:03:57;102899.22;;;-2.55;100.00
61472;BME280;47337;54.068;12.114;2023-02-28T03:06:24;102900.13;;;-2.54;100.00
61472;BME280;47337;54.068;12.114;2023-02-28T03:08:49;102892.41;;;-2.63;100.00
61472;BME280;47337;54.068;12.114;2023-02-28T03:11:17;102898.47;;;-2.71;100.00
61472;BME280;47337;54.068;12.114;2023-02-28T03:24:56;102903.44;;;-2.64;100.00
61472;BME280;47337;54.068;12.114;2023-02-28T03:27:27;102907.41;;;-2.68;100.00
61472;BME280;47337;54.068;12.114;2023-02-28T03:32:36;102916.78;;;-2.68;100.00
61472;BME280;47337;54.068;12.114;2023-02-28T03:35:16;102918.28;;;-2.70;100.00
61472;BME280;47337;54.068;12.114;2023-02-28T03:37:49;102922.53;;;-2.71;100.00
61472;BME280;47337;54.068;12.114;2023-02-28T03:40:17;102915.13;;;-2.76;100.00
61472;BME280;47337;54.068;12.114;2023-02-28T03:42:48;102912.69;;;-2.83;100.00
61472;BME280;47337;54.068;12.114;2023-02-28T03:45:18;102924.97;;;-2.89;100.00
61472;BME280;47337;54.068;12.114;2023-02-28T03:47:55;102916.50;;;-2.88;100.00
61472;BME280;47337;54.068;12.114;2023-02-28T03:50:43;102921.47;;;-2.81;100.00
61472;BME280;47337;54.068;12.114;2023-02-28T03:53:16;102922.69;;;-2.86;100.00
61472;BME280;47337;54.068;12.114;2023-02-28T03:55:50;102921.31;;;-2.91;100.00
61472;BME280;47337;54.068;12.114;2023-02-28T03:58:41;102919.19;;;-2.96;100.00
61472;BME280;47337;54.068;12.114;2023-02-28T04:01:12;102918.16;;;-2.98;100.00
61472;BME280;47337;54.068;12.114;2023-02-28T04:03:41;102915.28;;;-3.01;100.00
61472;BME280;47337;54.068;12.114;2023-02-28T04:06:09;102916.78;;;-3.03;100.00
61472;BME280;47337;54.068;12.114;2023-02-28T04:08:39;102916.78;;;-3.03;100.00
61472;BME280;47337;54.068;12.114;2023-02-28T04:13:38;102916.63;;;-2.96;100.00
61472;BME280;47337;54.068;12.114;2023-02-28T04:16:07;102920.59;;;-3.08;100.00
61472;BME280;47337;54.068;12.114;2023-02-28T04:18:46;102924.94;;;-3.07;100.00
61472;BME280;47337;54.068;12.114;2023-02-28T04:21:12;102918.88;;;-3.07;100.00
61472;BME280;47337;54.068;12.114;2023-02-28T04:23:37;102915.88;;;-3.12;100.00
61472;BME280;47337;54.068;12.114;2023-02-28T04:26:03;102922.84;;;-3.11;100.00
61472;BME280;47337;54.068;12.114;2023-02-28T04:28:32;102930.38;;;-3.12;100.00
61472;BME280;47337;54.068;12.114;2023-02-28T04:30:59;102934.59;;;-3.13;100.00
61472;BME280;47337;54.068;12.114;2023-02-28T04:33:25;102932.34;;;-3.10;100.00
61472;BME280;47337;54.068;12.114;2023-02-28T04:36:11;102928.56;;;-3.22;100.00
61472;BME280;47337;54.068;12.114;2023-02-28T04:38:37;102936.09;;;-3.23;100.00
61472;BME280;47337;54.068;12.114;2023-02-28T04:41:03;102933.38;;;-3.34;100.00
61472;BME280;47337;54.068;12.114;2023-02-28T04:43:30;102936.09;;;-3.32;100.00
61472;BME280;47337;54.068;12.114;2023-02-28T04:46:00;102932.63;;;-3.33;100.00
61472;BME280;47337;54.068;12.114;2023-02-28T04:48:30;102941.06;;;-3.42;100.00
61472;BME280;47337;54.068;12.114;2023-02-28T04:51:00;102948.28;;;-3.38;100.00
61472;BME280;47337;54.068;12.114;2023-02-28T04:53:25;102946.94;;;-3.43;100.00
61472;BME280;47337;54.068;12.114;2023-02-28T04:55:50;102942.13;;;-3.40;100.00
61472;BME280;47337;54.068;12.114;2023-02-28T04:58:16;102944.38;;;-3.43;100.00
61472;BME280;47337;54.068;12.114;2023-02-28T05:00:42;102955.72;;;-3.41;100.00
61472;BME280;47337;54.068;12.114;2023-02-28T05:03:07;102951.19;;;-3.35;100.00
61472;BME280;47337;54.068;12.114;2023-02-28T05:05:32;102940.91;;;-3.35;100.00
61472;BME280;47337;54.068;12.114;2023-02-28T05:07:58;102936.25;;;-3.39;100.00
61472;BME280;47337;54.068;12.114;2023-02-28T05:10:23;102946.78;;;-3.45;100.00
61472;BME280;47337;54.068;12.114;2023-02-28T05:12:49;102944.22;;;-3.45;100.00
61472;BME280;47337;54.068;12.114;2023-02-28T05:15:16;102942.88;;;-3.50;100.00
61472;BME280;47337;54.068;12.114;2023-02-28T05:17:42;102948.28;;;-3.47;100.00
61472;BME280;47337;54.068;12.114;2023-02-28T05:20:08;102950.84;;;-3.47;100.00
61472;BME280;47337;54.068;12.114;2023-02-28T05:22:39;102942.41;;;-3.46;100.00
61472;BME280;47337;54.068;12.114;2023-02-28T05:25:05;102957.22;;;-3.43;100.00
61472;BME280;47337;54.068;12.114;2023-02-28T05:27:30;102960.94;;;-3.48;100.00
61472;BME280;47337;54.068;12.114;2023-02-28T05:29:56;102958.38;;;-3.48;100.00
61472;BME280;47337;54.068;12.114;2023-02-28T05:32:24;102962.31;;;-3.52;100.00
61472;BME280;47337;54.068;12.114;2023-02-28T05:34:50;102968.03;;;-3.54;100.00
61472;BME280;47337;54.068;12.114;2023-02-28T05:37:16;102972.59;;;-3.52;100.00
61472;BME280;47337;54.068;12.114;2023-02-28T05:39:43;102968.03;;;-3.54;100.00
61472;BME280;47337;54.068;12.114;2023-02-28T05:42:09;102968.31;;;-3.60;100.00
61472;BME280;47337;54.068;12.114;2023-02-28T05:44:35;102958.34;;;-3.65;100.00
61472;BME280;47337;54.068;12.114;2023-02-28T05:47:01;102975.25;;;-3.67;100.00
61472;BME280;47337;54.068;12.114;2023-02-28T05:49:26;102979.03;;;-3.64;100.00
61472;BME280;47337;54.068;12.114;2023-02-28T05:51:54;102984.59;;;-3.68;100.00
61472;BME280;47337;54.068;12.114;2023-02-28T05:54:19;102986.09;;;-3.70;100.00
61472;BME280;47337;54.068;12.114;2023-02-28T05:56:45;102991.31;;;-3.53;100.00
61472;BME280;47337;54.068;12.114;2023-02-28T05:59:11;102989.19;;;-3.48;100.00
61472;BME280;47337;54.068;12.114;2023-02-28T06:01:40;102987.84;;;-3.53;100.00
61472;BME280;47337;54.068;12.114;2023-02-28T06:04:12;102983.44;;;-3.54;100.00
61472;BME280;47337;54.068;12.114;2023-02-28T06:06:40;102989.00;;;-3.58;100.00
61472;BME280;47337;54.068;12.114;2023-02-28T06:09:05;102981.31;;;-3.58;100.00
61472;BME280;47337;54.068;12.114;2023-02-28T06:11:32;102985.84;;;-3.56;100.00
61472;BME280;47337;54.068;12.114;2023-02-28T06:13:58;102982.06;;;-3.59;100.00
61472;BME280;47337;54.068;12.114;2023-02-28T06:16:26;102985.69;;;-3.57;100.00
61472;BME280;47337;54.068;12.114;2023-02-28T06:18:51;102990.56;;;-3.52;100.00
61472;BME280;47337;54.068;12.114;2023-02-28T06:21:18;102987.72;;;-3.38;100.00
61472;BME280;47337;54.068;12.114;2023-02-28T06:23:46;103001.75;;;-3.43;100.00
61472;BME280;47337;54.068;12.114;2023-02-28T06:26:12;102992.56;;;-3.41;100.00
61472;BME280;47337;54.068;12.114;2023-02-28T06:28:37;103008.88;;;-3.40;100.00
61472;BME280;47337;54.068;12.114;2023-02-28T06:31:12;103002.56;;;-3.26;100.00
61472;BME280;47337;54.068;12.114;2023-02-28T06:33:41;103005.16;;;-3.18;100.00
61472;BME280;47337;54.068;12.114;2023-02-28T06:36:09;103003.94;;;-3.21;100.00
61472;BME280;47337;54.068;12.114;2023-02-28T06:38:34;103002.88;;;-3.15;100.00
61472;BME280;47337;54.068;12.114;2023-02-28T06:41:01;103010.91;;;-3.12;100.00
61472;BME280;47337;54.068;12.114;2023-02-28T06:43:33;103018.31;;;-3.06;100.00
61472;BME280;47337;54.068;12.114;2023-02-28T06:46:04;103030.72;;;-2.93;100.00
61472;BME280;47337;54.068;12.114;2023-02-28T06:48:33;103021.84;;;-2.88;100.00
61472;BME280;47337;54.068;12.114;2023-02-28T06:51:13;103024.09;;;-2.83;100.00
61472;BME280;47337;54.068;12.114;2023-02-28T06:53:39;103017.63;;;-2.79;100.00
61472;BME280;47337;54.068;12.114;2023-02-28T06:56:07;103027.41;;;-2.75;100.00
61472;BME280;47337;54.068;12.114;2023-02-28T06:58:33;103023.06;;;-2.68;100.00
61472;BME280;47337;54.068;12.114;2023-02-28T07:00:59;103028.22;;;-2.59;100.00
61472;BME280;47337;54.068;12.114;2023-02-28T07:03:27;103033.19;;;-2.52;100.00
61472;BME280;47337;54.068;12.114;2023-02-28T07:05:52;103028.03;;;-2.43;100.00
61472;BME280;47337;54.068;12.114;2023-02-28T07:08:18;103030.78;;;-2.33;100.00
61472;BME280;47337;54.068;12.114;2023-02-28T07:10:43;103033.63;;;-2.22;100.00
61472;BME280;47337;54.068;12.114;2023-02-28T07:13:09;103035.59;;;-2.10;100.00
61472;BME280;47337;54.068;12.114;2023-02-28T07:15:36;103038.91;;;-1.94;100.00
61472;BME280;47337;54.068;12.114;2023-02-28T07:18:01;103040.09;;;-1.82;100.00
61472;BME280;47337;54.068;12.114;2023-02-28T07:20:28;103035.97;;;-1.71;100.00
61472;BME280;47337;54.068;12.114;2023-02-28T07:22:54;103041.81;;;-1.55;100.00
61472;BME280;47337;54.068;12.114;2023-02-28T07:25:23;103052.38;;;-1.43;100.00
61472;BME280;47337;54.068;12.114;2023-02-28T07:27:49;103040.81;;;-1.30;100.00
61472;BME280;47337;54.068;12.114;2023-02-28T07:30:15;103053.78;;;-1.20;100.00
61472;BME280;47337;54.068;12.114;2023-02-28T07:32:41;103059.59;;;-1.03;100.00
61472;BME280;47337;54.068;12.114;2023-02-28T07:35:07;103063.19;;;-0.93;100.00
61472;BME280;47337;54.068;12.114;2023-02-28T07:37:33;103064.03;;;-0.84;100.00
61472;BME280;47337;54.068;12.114;2023-02-28T07:40:03;103066.53;;;-0.66;100.00
61472;BME280;47337;54.068;12.114;2023-02-28T07:42:32;103067.91;;;-0.51;100.00
61472;BME280;47337;54.068;12.114;2023-02-28T07:44:57;103078.81;;;-0.45;100.00
61472;BME280;47337;54.068;12.114;2023-02-28T07:47:24;103077.34;;;-0.33;100.00
61472;BME280;47337;54.068;12.114;2023-02-28T07:49:49;103077.47;;;-0.31;100.00
61472;BME280;47337;54.068;12.114;2023-02-28T07:52:18;103077.06;;;-0.17;100.00
61472;BME280;47337;54.068;12.114;2023-02-28T07:54:43;103084.78;;;0.02;100.00
61472;BME280;47337;54.068;12.114;2023-02-28T07:57:08;103078.66;;;0.10;100.00
61472;BME280;47337;54.068;12.114;2023-02-28T07:59:34;103077.94;;;0.21;100.00
61472;BME280;47337;54.068;12.114;2023-02-28T08:01:59;103074.09;;;0.36;100.00
61472;BME280;47337;54.068;12.114;2023-02-28T08:04:25;103072.06;;;0.42;100.00
61472;BME280;47337;54.068;12.114;2023-02-28T08:06:51;103079.06;;;0.53;100.00
61472;BME280;47337;54.068;12.114;2023-02-28T08:09:18;103075.72;;;0.64;100.00
61472;BME280;47337;54.068;12.114;2023-02-28T08:11:44;103074.09;;;0.75;100.00
61472;BME280;47337;54.068;12.114;2023-02-28T08:14:09;103074.25;;;0.87;100.00
61472;BME280;47337;54.068;12.114;2023-02-28T08:16:37;103071.94;;;1.00;100.00
61472;BME280;47337;54.068;12.114;2023-02-28T08:19:03;103064.69;;;1.06;100.00
61472;BME280;47337;54.068;12.114;2023-02-28T08:21:29;103056.97;;;1.16;100.00
61472;BME280;47337;54.068;12.114;2023-02-28T08:23:54;103052.44;;;1.34;100.00
61472;BME280;47337;54.068;12.114;2023-02-28T08:26:22;103063.69;;;1.55;100.00
61472;BME280;47337;54.068;12.114;2023-02-28T08:28:47;103056.41;;;1.61;100.00
61472;BME280;47337;54.068;12.114;2023-02-28T08:31:16;103066.75;;;1.71;100.00
61472;BME280;47337;54.068;12.114;2023-02-28T08:33:42;103062.47;;;1.81;100.00
61472;BME280;47337;54.068;12.114;2023-02-28T08:36:12;103058.31;;;1.83;100.00
61472;BME280;47337;54.068;12.114;2023-02-28T08:38:38;103052.16;;;2.03;100.00
61472;BME280;47337;54.068;12.114;2023-02-28T08:41:07;103052.00;;;2.22;100.00
61472;BME280;47337;54.068;12.114;2023-02-28T08:43:34;103038.88;;;2.31;100.00
61472;BME280;47337;54.068;12.114;2023-02-28T08:46:00;103036.41;;;2.32;100.00
61472;BME280;47337;54.068;12.114;2023-02-28T08:48:28;103033.50;;;2.39;100.00
61472;BME280;47337;54.068;12.114;2023-02-28T08:51:05;103029.19;;;2.50;100.00
61472;BME280;47337;54.068;12.114;2023-02-28T08:53:32;103020.97;;;2.55;100.00
61472;BME280;47337;54.068;12.114;2023-02-28T08:55:59;103012.22;;;2.65;100.00
61472;BME280;47337;54.068;12.114;2023-02-28T08:58:24;102995.72;;;2.75;100.00
61472;BME280;47337;54.068;12.114;2023-02-28T09:00:53;102995.00;;;2.99;100.00
61472;BME280;47337;54.068;12.114;2023-02-28T09:03:19;102981.50;;;3.15;100.00
61472;BME280;47337;54.068;12.114;2023-02-28T09:06:03;102975.56;;;3.27;100.00
61472;BME280;47337;54.068;12.114;2023-02-28T09:08:30;102966.75;;;3.37;100.00
61472;BME280;47337;54.068;12.114;2023-02-28T09:10:58;102958.09;;;3.48;100.00
61472;BME280;47337;54.068;12.114;2023-02-28T09:13:25;102943.59;;;3.75;100.00
61472;BME280;47337;54.068;12.114;2023-02-28T09:15:55;102931.84;;;3.92;100.00
61472;BME280;47337;54.068;12.114;2023-02-28T09:18:22;102923.09;;;4.03;100.00
61472;BME280;47337;54.068;12.114;2023-02-28T09:20:49;102910.72;;;4.24;100.00
61472;BME280;47337;54.068;12.114;2023-02-28T09:23:16;102894.19;;;4.35;100.00
61472;BME280;47337;54.068;12.114;2023-02-28T09:25:46;102883.59;;;4.32;100.00
61472;BME280;47337;54.068;12.114;2023-02-28T09:28:19;102876.16;;;4.50;100.00
61472;BME280;47337;54.068;12.114;2023-02-28T09:30:47;102859.41;;;4.71;100.00
61472;BME280;47337;54.068;12.114;2023-02-28T09:33:16;102835.59;;;4.78;100.00
61472;BME280;47337;54.068;12.114;2023-02-28T09:35:42;102832.72;;;5.00;100.00
61472;BME280;47337;54.068;12.114;2023-02-28T09:38:08;102807.59;;;5.13;100.00
61472;BME280;47337;54.068;12.114;2023-02-28T09:40:47;102797.19;;;5.27;100.00
61472;BME280;47337;54.068;12.114;2023-02-28T09:43:14;102783.53;;;5.31;100.00
61472;BME280;47337;54.068;12.114;2023-02-28T09:45:42;102774.97;;;5.19;100.00
61472;BME280;47337;54.068;12.114;2023-02-28T09:48:17;102768.09;;;5.34;100.00
61472;BME280;47337;54.068;12.114;2023-02-28T09:50:52;102758.84;;;5.52;100.00
61472;BME280;47337;54.068;12.114;2023-02-28T09:53:29;102736.03;;;5.48;100.00
61472;BME280;47337;54.068;12.114;2023-02-28T09:56:03;102720.31;;;5.46;100.00
61472;BME280;47337;54.068;12.114;2023-02-28T09:58:49;102715.19;;;5.48;100.00
61472;BME280;47337;54.068;12.114;2023-02-28T10:01:29;102711.91;;;5.65;100.00
61472;BME280;47337;54.068;12.114;2023-02-28T10:03:59;102707.81;;;5.69;100.00
61472;BME280;47337;54.068;12.114;2023-02-28T10:06:31;102695.56;;;5.68;100.00
61472;BME280;47337;54.068;12.114;2023-02-28T10:09:04;102679.69;;;5.78;100.00
61472;BME280;47337;54.068;12.114;2023-02-28T10:11:36;102662.97;;;5.74;100.00
61472;BME280;47337;54.068;12.114;2023-02-28T10:14:12;102641.47;;;5.92;100.00
61472;BME280;47337;54.068;12.114;2023-02-28T10:25:22;102598.75;;;6.19;100.00
61472;BME280;47337;54.068;12.114;2023-02-28T10:27:54;102584.88;;;6.35;99.84
61472;BME280;47337;54.068;12.114;2023-02-28T10:30:21;102551.50;;;6.29;98.07
61472;BME280;47337;54.068;12.114;2023-02-28T10:32:51;102546.91;;;6.40;97.23
61472;BME280;47337;54.068;12.114;2023-02-28T10:35:23;102520.31;;;6.47;95.55
61472;BME280;47337;54.068;12.114;2023-02-28T10:38:01;102491.91;;;6.51;94.05
61472;BME280;47337;54.068;12.114;2023-02-28T10:40:35;102476.06;;;6.48;93.20
61472;BME280;47337;54.068;12.114;2023-02-28T10:45:38;102425.53;;;6.46;89.74
61472;BME280;47337;54.068;12.114;2023-02-28T10:48:50;102407.81;;;6.57;89.11
61472;BME280;47337;54.068;12.114;2023-02-28T11:01:21;102323.13;;;6.67;83.55
61472;BME280;47337;54.068;12.114;2023-02-28T11:03:46;102310.97;;;6.67;82.06
61472;BME280;47337;54.068;12.114;2023-02-28T11:06:18;102291.47;;;6.60;81.19
61472;BME280;47337;54.068;12.114;2023-02-28T11:08:46;102282.56;;;6.73;80.72
61472;BME280;47337;54.068;12.114;2023-02-28T11:11:12;102247.00;;;6.75;78.88
61472;BME280;47337;54.068;12.114;2023-02-28T11:13:38;102211.06;;;6.70;77.44
61472;BME280;47337;54.068;12.114;2023-02-28T11:16:06;102202.84;;;6.80;76.81
61472;BME280;47337;54.068;12.114;2023-02-28T11:18:52;102177.81;;;6.83;76.18
61472;BME280;47337;54.068;12.114;2023-02-28T11:21:22;102157.78;;;7.02;74.84
61472;BME280;47337;54.068;12.114;2023-02-28T11:23:54;102127.91;;;6.95;73.79
61472;BME280;47337;54.068;12.114;2023-02-28T11:26:46;102120.63;;;7.07;73.00
61472;BME280;47337;54.068;12.114;2023-02-28T11:34:26;102101.53;;;7.08;71.87
61472;BME280;47337;54.068;12.114;2023-02-28T11:36:54;102139.00;;;7.09;72.60
61472;BME280;47337;54.068;12.114;2023-02-28T11:39:20;102162.09;;;7.01;73.30
61472;BME280;47337;54.068;12.114;2023-02-28T11:46:47;102170.47;;;6.94;74.12
61472;BME280;47337;54.068;12.114;2023-02-28T11:49:28;102158.09;;;6.90;73.53
61472;BME280;47337;54.068;12.114;2023-02-28T11:52:08;102156.88;;;7.01;73.81
61472;BME280;47337;54.068;12.114;2023-02-28T12:06:13;102090.81;;;7.21;72.04
61472;BME280;47337;54.068;12.114;2023-02-28T12:22:34;102012.09;;;7.33;69.61
61472;BME280;47337;54.068;12.114;2023-02-28T12:27:46;102004.41;;;7.36;69.68
61472;BME280;47337;54.068;12.114;2023-02-28T12:30:33;102015.31;;;7.47;69.37
61472;BME280;47337;54.068;12.114;2023-02-28T12:33:12;101993.31;;;7.42;69.06
61472;BME280;47337;54.068;12.114;2023-02-28T12:40:46;101984.28;;;7.54;68.81
61472;BME280;47337;54.068;12.114;2023-02-28T12:43:16;101995.09;;;7.43;68.97
61472;BME280;47337;54.068;12.114;2023-02-28T12:46:17;101987.03;;;7.37;69.05
61472;BME280;47337;54.068;12.114;2023-02-28T12:48:50;101976.81;;;7.43;68.60
61472;BME280;47337;54.068;12.114;2023-02-28T12:51:20;101972.00;;;7.52;68.22
61472;BME280;47337;54.068;12.114;2023-02-28T12:54:35;101973.31;;;7.63;68.06
61472;BME280;47337;54.068;12.114;2023-02-28T12:59:34;101996.44;;;7.54;68.56
61472;BME280;47337;54.068;12.114;2023-02-28T13:05:12;102021.97;;;7.80;68.79
61472;BME280;47337;54.068;12.114;2023-02-28T13:13:15;102039.94;;;7.52;69.54
61472;BME280;47337;54.068;12.114;2023-02-28T13:20:58;102093.84;;;7.30;70.86
61472;BME280;47337;54.068;12.114;2023-02-28T13:24:01;102113.38;;;7.39;71.28
61472;BME280;47337;54.068;12.114;2023-02-28T13:34:27;102133.72;;;7.26;72.12
61472;BME280;47337;54.068;12.114;2023-02-28T13:39:54;102157.38;;;7.29;72.65
61472;BME280;47337;54.068;12.114;2023-02-28T13:42:33;102143.19;;;7.24;72.77
61472;BME280;47337;54.068;12.114;2023-02-28T13:47:38;102136.97;;;7.40;72.35
61472;BME280;47337;54.068;12.114;2023-02-28T14:06:27;102104.81;;;7.43;71.41
61472;BME280;47337;54.068;12.114;2023-02-28T14:11:45;102090.28;;;7.28;71.75
61472;BME280;47337;54.068;12.114;2023-02-28T14:17:03;102113.06;;;7.32;71.68
61472;BME280;47337;54.068;12.114;2023-02-28T14:19:34;102106.84;;;7.29;71.89
61472;BME280;47337;54.068;12.114;2023-02-28T14:22:43;102076.31;;;7.28;71.22
61472;BME280;47337;54.068;12.114;2023-02-28T14:31:03;102063.56;;;7.55;70.67
61472;BME280;47337;54.068;12.114;2023-02-28T14:33:42;102054.59;;;7.29;70.57
61472;BME280;47337;54.068;12.114;2023-02-28T14:36:24;102045.88;;;7.28;70.96
61472;BME280;47337;54.068;12.114;2023-02-28T14:38:52;102052.41;;;7.19;70.81
61472;BME280;47337;54.068;12.114;2023-02-28T14:41:23;102057.97;;;7.26;70.91
61472;BME280;47337;54.068;12.114;2023-02-28T14:43:58;102036.66;;;7.17;70.27
61472;BME280;47337;54.068;12.114;2023-02-28T14:46:38;102028.69;;;7.14;70.65
61472;BME280;47337;54.068;12.114;2023-02-28T14:49:06;102034.31;;;7.23;70.48
61472;BME280;47337;54.068;12.114;2023-02-28T14:51:33;102035.56;;;7.12;71.25
61472;BME280;47337;54.068;12.114;2023-02-28T14:54:00;102060.69;;;7.10;71.47
61472;BME280;47337;54.068;12.114;2023-02-28T14:56:37;102055.06;;;7.01;71.65
61472;BME280;47337;54.068;12.114;2023-02-28T14:59:23;102061.47;;;6.88;71.79
61472;BME280;47337;54.068;12.114;2023-02-28T15:01:49;102074.63;;;7.09;71.86
61472;BME280;47337;54.068;12.114;2023-02-28T15:04:26;102064.00;;;7.25;71.52
61472;BME280;47337;54.068;12.114;2023-02-28T15:07:15;102060.19;;;6.98;71.58
61472;BME280;47337;54.068;12.114;2023-02-28T15:09:41;102075.63;;;6.93;72.26
61472;BME280;47337;54.068;12.114;2023-02-28T15:12:13;102093.00;;;6.93;72.66
61472;BME280;47337;54.068;12.114;2023-02-28T15:14:43;102099.72;;;6.88;72.95
61472;BME280;47337;54.068;12.114;2023-02-28T15:17:18;102101.78;;;6.95;72.46
61472;BME280;47337;54.068;12.114;2023-02-28T15:19:48;102106.66;;;6.87;72.69
61472;BME280;47337;54.068;12.114;2023-02-28T15:22:17;102111.66;;;6.83;73.28
61472;BME280;47337;54.068;12.114;2023-02-28T15:24:48;102118.25;;;6.75;73.30
61472;BME280;47337;54.068;12.114;2023-02-28T15:27:23;102126.72;;;6.71;73.66
61472;BME280;47337;54.068;12.114;2023-02-28T15:29:56;102131.28;;;6.75;73.70
61472;BME280;47337;54.068;12.114;2023-02-28T15:32:38;102152.47;;;6.63;74.33
61472;BME280;47337;54.068;12.114;2023-02-28T15:37:58;102169.69;;;6.59;74.62